sensor_id;sensor_type;location;lat;lon;timestamp;temperature;humidity
9975;DHT22;5028;50.974;4.968;2023-05-07T00:01:14;14.90;99.90
9975;DHT22;5028;50.974;4.968;2023-05-07T00:03:45;14.90;99.90
9975;DHT22;5028;50.974;4.968;2023-05-07T00:06:14;14.90;99.90
9975;DHT22;5028;50.974;4.968;2023-05-07T00:08:42;14.90;99.90
9975;DHT22;5028;50.974;4.968;2023-05-07T00:11:10;15.00;99.90
9975;DHT22;5028;50.974;4.968;2023-05-07T00:13:38;14.90;99.90
9975;DHT22;5028;50.974;4.968;2023-05-07T00:16:07;15.00;99.90
9975;DHT22;5028;50.974;4.968;2023-05-07T00:18:35;15.00;99.90
9975;DHT22;5028;50.974;4.968;2023-05-07T00:21:05;15.00;99.90
9975;DHT22;5028;50.974;4.968;2023-05-07T00:23:33;15.00;99.90
9975;DHT22;5028;50.974;4.968;2023-05-07T00:26:01;15.00;99.90
9975;DHT22;5028;50.974;4.968;2023-05-07T00:28:30;15.10;99.90
9975;DHT22;5028;50.974;4.968;2023-05-07T00:30:58;15.10;99.90
9975;DHT22;5028;50.974;4.968;2023-05-07T00:33:26;15.10;99.90
9975;DHT22;5028;50.974;4.968;2023-05-07T00:35:54;15.10;99.90
9975;DHT22;5028;50.974;4.968;2023-05-07T00:38:24;15.00;99.90
9975;DHT22;5028;50.974;4.968;2023-05-07T00:40:52;15.10;99.90
9975;DHT22;5028;50.974;4.968;2023-05-07T00:43:23;15.10;99.90
9975;DHT22;5028;50.974;4.968;2023-05-07T00:46:03;15.10;99.90
9975;DHT22;5028;50.974;4.968;2023-05-07T00:48:32;15.10;99.90
9975;DHT22;5028;50.974;4.968;2023-05-07T00:51:00;15.10;99.90
9975;DHT22;5028;50.974;4.968;2023-05-07T00:53:30;15.10;99.90
9975;DHT22;5028;50.974;4.968;2023-05-07T00:55:59;15.10;99.90
9975;DHT22;5028;50.974;4.968;2023-05-07T00:58:27;15.00;99.90
9975;DHT22;5028;50.974;4.968;2023-05-07T01:00:56;15.00;99.90
9975;DHT22;5028;50.974;4.968;2023-05-07T01:03:26;15.00;99.90
9975;DHT22;5028;50.974;4.968;2023-05-07T01:05:57;15.00;99.90
9975;DHT22;5028;50.974;4.968;2023-05-07T01:08:29;15.00;99.90
9975;DHT22;5028;50.974;4.968;2023-05-07T01:11:00;15.00;99.90
9975;DHT22;5028;50.974;4.968;2023-05-07T01:13:31;15.00;99.90
9975;DHT22;5028;50.974;4.968;2023-05-07T01:16:00;15.00;99.90
9975;DHT22;5028;50.974;4.968;2023-05-07T01:18:29;14.90;99.90
9975;DHT22;5028;50.974;4.968;2023-05-07T01:20:59;14.90;99.90
9975;DHT22;5028;50.974;4.968;2023-05-07T01:23:33;14.90;99.90
9975;DHT22;5028;50.974;4.968;2023-05-07T01:26:02;14.80;99.90
9975;DHT22;5028;50.974;4.968;2023-05-07T01:28:31;14.80;99.90
9975;DHT22;5028;50.974;4.968;2023-05-07T01:31:02;14.70;99.90
9975;DHT22;5028;50.974;4.968;2023-05-07T01:33:34;14.70;99.90
9975;DHT22;5028;50.974;4.968;2023-05-07T01:36:06;14.60;99.90
9975;DHT22;5028;50.974;4.968;2023-05-07T01:38:37;14.60;99.90
9975;DHT22;5028;50.974;4.968;2023-05-07T01:41:07;14.60;99.90
9975;DHT22;5028;50.974;4.968;2023-05-07T01:43:37;14.60;99.90
9975;DHT22;5028;50.974;4.968;2023-05-07T01:46:06;14.60;99.90
9975;DHT22;5028;50.974;4.968;2023-05-07T01:48:37;14.60;99.90
9975;DHT22;5028;50.974;4.968;2023-05-07T01:51:06;14.50;99.90
9975;DHT22;5028;50.974;4.968;2023-05-07T01:53:38;14.50;99.90
9975;DHT22;5028;50.974;4.968;2023-05-07T01:56:07;14.50;99.90
9975;DHT22;5028;50.974;4.968;2023-05-07T01:58:36;14.50;99.90
9975;DHT22;5028;50.974;4.968;2023-05-07T02:01:05;14.50;99.90
9975;DHT22;5028;50.974;4.968;2023-05-07T02:03:34;14.50;99.90
9975;DHT22;5028;50.974;4.968;2023-05-07T02:06:03;14.60;99.90
9975;DHT22;5028;50.974;4.968;2023-05-07T02:08:32;14.60;99.90
9975;DHT22;5028;50.974;4.968;2023-05-07T02:11:03;14.60;99.90
9975;DHT22;5028;50.974;4.968;2023-05-07T02:13:32;14.60;99.90
9975;DHT22;5028;50.974;4.968;2023-05-07T02:16:02;14.60;99.90
9975;DHT22;5028;50.974;4.968;2023-05-07T02:18:31;14.60;99.90
9975;DHT22;5028;50.974;4.968;2023-05-07T02:21:00;14.60;99.90
9975;DHT22;5028;50.974;4.968;2023-05-07T02:23:29;14.60;99.90
9975;DHT22;5028;50.974;4.968;2023-05-07T02:25:57;14.60;99.90
9975;DHT22;5028;50.974;4.968;2023-05-07T02:28:28;14.60;99.90
9975;DHT22;5028;50.974;4.968;2023-05-07T02:30:57;14.60;99.90
9975;DHT22;5028;50.974;4.968;2023-05-07T02:33:28;14.60;99.90
9975;DHT22;5028;50.974;4.968;2023-05-07T02:36:06;14.60;99.90
9975;DHT22;5028;50.974;4.968;2023-05-07T02:38:35;14.60;99.90
9975;DHT22;5028;50.974;4.968;2023-05-07T02:41:04;14.60;99.90
9975;DHT22;5028;50.974;4.968;2023-05-07T02:43:34;14.60;99.90
9975;DHT22;5028;50.974;4.968;2023-05-07T02:46:04;14.60;99.90
9975;DHT22;5028;50.974;4.968;2023-05-07T02:48:33;14.60;99.90
9975;DHT22;5028;50.974;4.968;2023-05-07T02:51:02;14.50;99.90
9975;DHT22;5028;50.974;4.968;2023-05-07T02:53:33;14.50;99.90
9975;DHT22;5028;50.974;4.968;2023-05-07T02:56:04;14.50;99.90
9975;DHT22;5028;50.974;4.968;2023-05-07T02:58:34;14.50;99.90
9975;DHT22;5028;50.974;4.968;2023-05-07T03:01:03;14.50;99.90
9975;DHT22;5028;50.974;4.968;2023-05-07T03:03:32;14.50;99.90
9975;DHT22;5028;50.974;4.968;2023-05-07T03:06:01;14.40;99.90
9975;DHT22;5028;50.974;4.968;2023-05-07T03:08:29;14.50;99.90
9975;DHT22;5028;50.974;4.968;2023-05-07T03:10:59;14.50;99.90
9975;DHT22;5028;50.974;4.968;2023-05-07T03:13:27;14.40;99.90
9975;DHT22;5028;50.974;4.968;2023-05-07T03:15:58;14.40;99.90
9975;DHT22;5028;50.974;4.968;2023-05-07T03:18:27;14.40;99.90
9975;DHT22;5028;50.974;4.968;2023-05-07T03:20:55;14.40;99.90
9975;DHT22;5028;50.974;4.968;2023-05-07T03:23:24;14.40;99.90
9975;DHT22;5028;50.974;4.968;2023-05-07T03:25:53;14.40;99.90
9975;DHT22;5028;50.974;4.968;2023-05-07T03:28:24;14.40;99.90
9975;DHT22;5028;50.974;4.968;2023-05-07T03:30:53;14.40;99.90
9975;DHT22;5028;50.974;4.968;2023-05-07T03:33:24;14.40;99.90
9975;DHT22;5028;50.974;4.968;2023-05-07T03:35:53;14.40;99.90
9975;DHT22;5028;50.974;4.968;2023-05-07T03:38:23;14.40;99.90
9975;DHT22;5028;50.974;4.968;2023-05-07T03:40:53;14.40;99.90
9975;DHT22;5028;50.974;4.968;2023-05-07T03:43:21;14.40;99.90
9975;DHT22;5028;50.974;4.968;2023-05-07T03:45:51;14.40;99.90
9975;DHT22;5028;50.974;4.968;2023-05-07T03:48:20;14.30;99.90
9975;DHT22;5028;50.974;4.968;2023-05-07T03:50:51;14.30;99.90
9975;DHT22;5028;50.974;4.968;2023-05-07T03:53:19;14.30;99.90
9975;DHT22;5028;50.974;4.968;2023-05-07T03:55:48;14.30;99.90
9975;DHT22;5028;50.974;4.968;2023-05-07T03:58:18;14.30;99.90
9975;DHT22;5028;50.974;4.968;2023-05-07T04:00:47;14.30;99.90
9975;DHT22;5028;50.974;4.968;2023-05-07T04:03:17;14.40;99.90
9975;DHT22;5028;50.974;4.968;2023-05-07T04:05:46;14.30;99.90
9975;DHT22;5028;50.974;4.968;2023-05-07T04:08:17;14.30;99.90
9975;DHT22;5028;50.974;4.968;2023-05-07T04:10:46;14.30;99.90
9975;DHT22;5028;50.974;4.968;2023-05-07T04:13:15;14.40;99.90
9975;DHT22;5028;50.974;4.968;2023-05-07T04:15:44;14.40;99.90
9975;DHT22;5028;50.974;4.968;2023-05-07T04:18:13;14.40;99.90
9975;DHT22;5028;50.974;4.968;2023-05-07T04:20:41;14.40;99.90
9975;DHT22;5028;50.974;4.968;2023-05-07T04:23:11;14.40;99.90
9975;DHT22;5028;50.974;4.968;2023-05-07T04:25:43;14.40;99.90
9975;DHT22;5028;50.974;4.968;2023-05-07T04:28:14;14.40;99.90
9975;DHT22;5028;50.974;4.968;2023-05-07T04:30:43;14.40;99.90
9975;DHT22;5028;50.974;4.968;2023-05-07T04:33:14;14.40;99.90
9975;DHT22;5028;50.974;4.968;2023-05-07T04:35:43;14.40;99.90
9975;DHT22;5028;50.974;4.968;2023-05-07T04:38:13;14.40;99.90
9975;DHT22;5028;50.974;4.968;2023-05-07T04:40:43;14.40;99.90
9975;DHT22;5028;50.974;4.968;2023-05-07T04:43:11;14.40;99.90
9975;DHT22;5028;50.974;4.968;2023-05-07T04:45:42;14.50;99.90
9975;DHT22;5028;50.974;4.968;2023-05-07T04:48:12;14.50;99.90
9975;DHT22;5028;50.974;4.968;2023-05-07T04:50:43;14.50;99.90
9975;DHT22;5028;50.974;4.968;2023-05-07T04:53:11;14.50;99.90
9975;DHT22;5028;50.974;4.968;2023-05-07T04:55:40;14.50;99.90
9975;DHT22;5028;50.974;4.968;2023-05-07T04:58:11;14.50;99.90
9975;DHT22;5028;50.974;4.968;2023-05-07T05:00:41;14.50;99.90
9975;DHT22;5028;50.974;4.968;2023-05-07T05:03:10;14.50;99.90
9975;DHT22;5028;50.974;4.968;2023-05-07T05:05:39;14.50;99.90
9975;DHT22;5028;50.974;4.968;2023-05-07T05:08:08;14.50;99.90
9975;DHT22;5028;50.974;4.968;2023-05-07T05:10:37;14.50;99.90
9975;DHT22;5028;50.974;4.968;2023-05-07T05:13:06;14.60;99.90
9975;DHT22;5028;50.974;4.968;2023-05-07T05:15:36;14.60;99.90
9975;DHT22;5028;50.974;4.968;2023-05-07T05:18:05;14.60;99.90
9975;DHT22;5028;50.974;4.968;2023-05-07T05:20:34;14.60;99.90
9975;DHT22;5028;50.974;4.968;2023-05-07T05:23:04;14.60;99.90
9975;DHT22;5028;50.974;4.968;2023-05-07T05:25:33;14.60;99.90
9975;DHT22;5028;50.974;4.968;2023-05-07T05:28:02;14.60;99.90
9975;DHT22;5028;50.974;4.968;2023-05-07T05:30:31;14.60;99.90
9975;DHT22;5028;50.974;4.968;2023-05-07T05:33:01;14.70;99.90
9975;DHT22;5028;50.974;4.968;2023-05-07T05:35:29;14.70;99.90
9975;DHT22;5028;50.974;4.968;2023-05-07T05:37:59;14.70;99.90
9975;DHT22;5028;50.974;4.968;2023-05-07T05:40:28;14.80;99.90
9975;DHT22;5028;50.974;4.968;2023-05-07T05:42:56;14.80;99.90
9975;DHT22;5028;50.974;4.968;2023-05-07T05:45:25;14.90;99.90
9975;DHT22;5028;50.974;4.968;2023-05-07T05:47:56;14.90;99.90
9975;DHT22;5028;50.974;4.968;2023-05-07T05:50:26;15.00;99.90
9975;DHT22;5028;50.974;4.968;2023-05-07T05:52:55;15.00;99.90
9975;DHT22;5028;50.974;4.968;2023-05-07T05:55:26;15.00;99.90
9975;DHT22;5028;50.974;4.968;2023-05-07T05:57:55;15.10;99.90
9975;DHT22;5028;50.974;4.968;2023-05-07T06:00:24;15.10;99.90
9975;DHT22;5028;50.974;4.968;2023-05-07T06:02:54;15.20;99.90
9975;DHT22;5028;50.974;4.968;2023-05-07T06:05:24;15.20;99.90
9975;DHT22;5028;50.974;4.968;2023-05-07T06:07:55;15.20;99.90
9975;DHT22;5028;50.974;4.968;2023-05-07T06:10:23;15.20;99.90
9975;DHT22;5028;50.974;4.968;2023-05-07T06:12:54;15.30;99.90
9975;DHT22;5028;50.974;4.968;2023-05-07T06:15:23;15.30;99.90
9975;DHT22;5028;50.974;4.968;2023-05-07T06:17:51;15.40;99.90
9975;DHT22;5028;50.974;4.968;2023-05-07T06:20:20;15.50;99.90
9975;DHT22;5028;50.974;4.968;2023-05-07T06:22:51;15.50;99.90
9975;DHT22;5028;50.974;4.968;2023-05-07T06:25:21;15.60;99.90
9975;DHT22;5028;50.974;4.968;2023-05-07T06:27:50;15.60;99.90
9975;DHT22;5028;50.974;4.968;2023-05-07T06:30:20;15.70;99.90
9975;DHT22;5028;50.974;4.968;2023-05-07T06:32:49;15.80;99.90
9975;DHT22;5028;50.974;4.968;2023-05-07T06:35:19;15.80;99.90
9975;DHT22;5028;50.974;4.968;2023-05-07T06:37:48;15.80;99.90
9975;DHT22;5028;50.974;4.968;2023-05-07T06:40:18;15.90;99.90
9975;DHT22;5028;50.974;4.968;2023-05-07T06:42:51;15.90;99.90
9975;DHT22;5028;50.974;4.968;2023-05-07T06:45:19;16.00;99.90
9975;DHT22;5028;50.974;4.968;2023-05-07T06:47:49;16.20;99.90
9975;DHT22;5028;50.974;4.968;2023-05-07T06:50:18;16.30;99.90
9975;DHT22;5028;50.974;4.968;2023-05-07T06:52:47;16.40;99.90
9975;DHT22;5028;50.974;4.968;2023-05-07T06:55:18;16.50;99.90
9975;DHT22;5028;50.974;4.968;2023-05-07T06:57:47;16.70;99.90
9975;DHT22;5028;50.974;4.968;2023-05-07T07:00:19;16.80;99.90
9975;DHT22;5028;50.974;4.968;2023-05-07T07:02:50;16.90;99.90
9975;DHT22;5028;50.974;4.968;2023-05-07T07:05:19;17.10;99.90
9975;DHT22;5028;50.974;4.968;2023-05-07T07:07:47;17.10;99.90
9975;DHT22;5028;50.974;4.968;2023-05-07T07:10:20;17.20;99.90
9975;DHT22;5028;50.974;4.968;2023-05-07T07:12:49;17.30;99.90
9975;DHT22;5028;50.974;4.968;2023-05-07T07:15:21;17.40;99.90
9975;DHT22;5028;50.974;4.968;2023-05-07T07:17:52;17.50;99.90
9975;DHT22;5028;50.974;4.968;2023-05-07T07:20:21;17.60;99.90
9975;DHT22;5028;50.974;4.968;2023-05-07T07:22:49;17.70;99.90
9975;DHT22;5028;50.974;4.968;2023-05-07T07:25:18;17.80;99.90
9975;DHT22;5028;50.974;4.968;2023-05-07T07:27:47;17.80;99.90
9975;DHT22;5028;50.974;4.968;2023-05-07T07:30:15;17.80;99.90
9975;DHT22;5028;50.974;4.968;2023-05-07T07:32:46;17.80;99.90
9975;DHT22;5028;50.974;4.968;2023-05-07T07:35:15;17.80;99.90
9975;DHT22;5028;50.974;4.968;2023-05-07T07:37:45;17.70;99.90
9975;DHT22;5028;50.974;4.968;2023-05-07T07:40:14;17.80;99.90
9975;DHT22;5028;50.974;4.968;2023-05-07T07:42:43;17.80;99.90
9975;DHT22;5028;50.974;4.968;2023-05-07T07:45:13;17.80;99.90
9975;DHT22;5028;50.974;4.968;2023-05-07T07:47:45;17.80;99.90
9975;DHT22;5028;50.974;4.968;2023-05-07T07:50:15;17.80;99.90
9975;DHT22;5028;50.974;4.968;2023-05-07T07:53:05;17.70;99.90
9975;DHT22;5028;50.974;4.968;2023-05-07T07:55:38;17.70;99.90
9975;DHT22;5028;50.974;4.968;2023-05-07T07:58:08;17.60;99.90
9975;DHT22;5028;50.974;4.968;2023-05-07T08:00:38;17.70;99.90
9975;DHT22;5028;50.974;4.968;2023-05-07T08:03:11;17.80;99.90
9975;DHT22;5028;50.974;4.968;2023-05-07T08:05:40;17.80;99.90
9975;DHT22;5028;50.974;4.968;2023-05-07T08:08:09;17.80;99.90
9975;DHT22;5028;50.974;4.968;2023-05-07T08:10:45;17.90;99.90
9975;DHT22;5028;50.974;4.968;2023-05-07T08:13:17;17.90;99.90
9975;DHT22;5028;50.974;4.968;2023-05-07T08:15:50;17.80;99.90
9975;DHT22;5028;50.974;4.968;2023-05-07T08:18:22;17.80;99.90
9975;DHT22;5028;50.974;4.968;2023-05-07T08:20:52;17.70;99.90
9975;DHT22;5028;50.974;4.968;2023-05-07T08:23:21;17.70;99.90
9975;DHT22;5028;50.974;4.968;2023-05-07T08:25:50;17.70;99.90
9975;DHT22;5028;50.974;4.968;2023-05-07T08:28:19;17.80;99.90
9975;DHT22;5028;50.974;4.968;2023-05-07T08:30:49;17.70;99.90
9975;DHT22;5028;50.974;4.968;2023-05-07T08:33:18;17.70;99.90
9975;DHT22;5028;50.974;4.968;2023-05-07T08:35:50;17.50;99.90
9975;DHT22;5028;50.974;4.968;2023-05-07T08:38:18;17.50;99.90
9975;DHT22;5028;50.974;4.968;2023-05-07T08:40:48;17.50;99.90
9975;DHT22;5028;50.974;4.968;2023-05-07T08:43:17;17.50;99.90
9975;DHT22;5028;50.974;4.968;2023-05-07T08:45:48;17.70;99.90
9975;DHT22;5028;50.974;4.968;2023-05-07T08:48:22;17.80;99.90
9975;DHT22;5028;50.974;4.968;2023-05-07T08:50:57;17.60;99.90
9975;DHT22;5028;50.974;4.968;2023-05-07T08:53:28;17.70;99.90
9975;DHT22;5028;50.974;4.968;2023-05-07T08:55:58;17.90;99.90
9975;DHT22;5028;50.974;4.968;2023-05-07T08:58:27;18.00;99.90
9975;DHT22;5028;50.974;4.968;2023-05-07T09:01:01;18.20;99.90
9975;DHT22;5028;50.974;4.968;2023-05-07T09:03:32;18.30;99.90
9975;DHT22;5028;50.974;4.968;2023-05-07T09:06:06;18.50;99.90
9975;DHT22;5028;50.974;4.968;2023-05-07T09:08:37;18.60;99.90
9975;DHT22;5028;50.974;4.968;2023-05-07T09:11:06;18.60;99.90
9975;DHT22;5028;50.974;4.968;2023-05-07T09:13:35;18.70;99.90
9975;DHT22;5028;50.974;4.968;2023-05-07T09:16:11;18.60;99.90
9975;DHT22;5028;50.974;4.968;2023-05-07T09:18:44;18.70;99.90
9975;DHT22;5028;50.974;4.968;2023-05-07T09:21:16;18.60;99.90
9975;DHT22;5028;50.974;4.968;2023-05-07T09:23:45;18.50;99.90
9975;DHT22;5028;50.974;4.968;2023-05-07T09:26:17;18.50;99.90
9975;DHT22;5028;50.974;4.968;2023-05-07T09:28:46;18.50;99.90
9975;DHT22;5028;50.974;4.968;2023-05-07T09:31:14;18.40;99.90
9975;DHT22;5028;50.974;4.968;2023-05-07T09:33:46;18.50;99.90
9975;DHT22;5028;50.974;4.968;2023-05-07T09:36:16;18.60;99.90
9975;DHT22;5028;50.974;4.968;2023-05-07T09:38:46;18.60;99.90
9975;DHT22;5028;50.974;4.968;2023-05-07T09:41:19;18.70;99.90
9975;DHT22;5028;50.974;4.968;2023-05-07T09:43:53;18.70;99.90
9975;DHT22;5028;50.974;4.968;2023-05-07T09:46:27;18.80;99.90
9975;DHT22;5028;50.974;4.968;2023-05-07T09:48:57;18.80;99.90
9975;DHT22;5028;50.974;4.968;2023-05-07T09:51:32;18.70;99.90
9975;DHT22;5028;50.974;4.968;2023-05-07T09:54:02;18.70;99.90
9975;DHT22;5028;50.974;4.968;2023-05-07T09:56:32;18.60;99.90
9975;DHT22;5028;50.974;4.968;2023-05-07T09:59:03;18.60;99.90
9975;DHT22;5028;50.974;4.968;2023-05-07T10:01:36;18.40;99.90
9975;DHT22;5028;50.974;4.968;2023-05-07T10:04:05;18.40;99.90
9975;DHT22;5028;50.974;4.968;2023-05-07T10:06:37;18.30;99.90
9975;DHT22;5028;50.974;4.968;2023-05-07T10:09:06;18.30;99.90
9975;DHT22;5028;50.974;4.968;2023-05-07T10:11:35;18.30;99.90
9975;DHT22;5028;50.974;4.968;2023-05-07T10:14:04;18.30;99.90
9975;DHT22;5028;50.974;4.968;2023-05-07T10:16:35;18.20;99.90
9975;DHT22;5028;50.974;4.968;2023-05-07T10:19:04;18.30;99.90
9975;DHT22;5028;50.974;4.968;2023-05-07T10:21:37;18.20;99.90
9975;DHT22;5028;50.974;4.968;2023-05-07T10:24:10;18.00;99.90
9975;DHT22;5028;50.974;4.968;2023-05-07T10:26:43;17.90;99.90
9975;DHT22;5028;50.974;4.968;2023-05-07T10:29:16;17.90;99.90
9975;DHT22;5028;50.974;4.968;2023-05-07T10:31:55;17.80;99.90
9975;DHT22;5028;50.974;4.968;2023-05-07T10:34:34;17.70;99.90
9975;DHT22;5028;50.974;4.968;2023-05-07T10:37:06;17.70;99.90
9975;DHT22;5028;50.974;4.968;2023-05-07T10:39:35;17.70;99.90
9975;DHT22;5028;50.974;4.968;2023-05-07T10:42:10;17.70;99.90
9975;DHT22;5028;50.974;4.968;2023-05-07T10:44:39;17.60;99.90
9975;DHT22;5028;50.974;4.968;2023-05-07T10:47:28;17.60;99.90
9975;DHT22;5028;50.974;4.968;2023-05-07T10:50:22;17.50;99.90
9975;DHT22;5028;50.974;4.968;2023-05-07T10:56:26;17.40;99.90
9975;DHT22;5028;50.974;4.968;2023-05-07T11:02:02;17.40;99.90
9975;DHT22;5028;50.974;4.968;2023-05-07T11:04:33;17.30;99.90
9975;DHT22;5028;50.974;4.968;2023-05-07T11:07:29;17.30;99.90
9975;DHT22;5028;50.974;4.968;2023-05-07T11:10:02;17.20;99.90
9975;DHT22;5028;50.974;4.968;2023-05-07T11:12:49;17.20;99.90
9975;DHT22;5028;50.974;4.968;2023-05-07T11:15:41;17.20;99.90
9975;DHT22;5028;50.974;4.968;2023-05-07T11:18:12;17.10;99.90
9975;DHT22;5028;50.974;4.968;2023-05-07T11:20:55;17.10;99.90
9975;DHT22;5028;50.974;4.968;2023-05-07T11:26:43;17.30;99.90
9975;DHT22;5028;50.974;4.968;2023-05-07T11:29:15;17.20;99.90
9975;DHT22;5028;50.974;4.968;2023-05-07T11:31:51;17.20;99.90
9975;DHT22;5028;50.974;4.968;2023-05-07T11:34:24;17.00;99.90
9975;DHT22;5028;50.974;4.968;2023-05-07T11:36:53;17.00;99.90
9975;DHT22;5028;50.974;4.968;2023-05-07T11:39:26;17.10;99.90
9975;DHT22;5028;50.974;4.968;2023-05-07T11:41:55;17.20;99.90
9975;DHT22;5028;50.974;4.968;2023-05-07T11:44:25;17.30;99.90
9975;DHT22;5028;50.974;4.968;2023-05-07T11:46:53;17.40;99.90
9975;DHT22;5028;50.974;4.968;2023-05-07T11:49:25;17.50;99.90
9975;DHT22;5028;50.974;4.968;2023-05-07T11:51:54;17.40;99.90
9975;DHT22;5028;50.974;4.968;2023-05-07T11:54:23;17.40;99.90
9975;DHT22;5028;50.974;4.968;2023-05-07T11:56:52;17.60;99.90
9975;DHT22;5028;50.974;4.968;2023-05-07T11:59:20;17.70;99.90
9975;DHT22;5028;50.974;4.968;2023-05-07T12:01:50;17.60;99.90
9975;DHT22;5028;50.974;4.968;2023-05-07T12:04:22;17.50;99.90
9975;DHT22;5028;50.974;4.968;2023-05-07T12:06:54;17.60;99.90
9975;DHT22;5028;50.974;4.968;2023-05-07T12:09:22;17.70;99.90
9975;DHT22;5028;50.974;4.968;2023-05-07T12:11:52;17.70;99.90
9975;DHT22;5028;50.974;4.968;2023-05-07T12:14:20;17.70;99.90
9975;DHT22;5028;50.974;4.968;2023-05-07T12:16:51;17.80;99.90
9975;DHT22;5028;50.974;4.968;2023-05-07T12:19:20;18.00;99.90
9975;DHT22;5028;50.974;4.968;2023-05-07T12:21:49;18.00;99.90
9975;DHT22;5028;50.974;4.968;2023-05-07T12:24:18;18.10;99.90
9975;DHT22;5028;50.974;4.968;2023-05-07T12:26:48;18.10;99.90
9975;DHT22;5028;50.974;4.968;2023-05-07T12:29:16;18.10;99.90
9975;DHT22;5028;50.974;4.968;2023-05-07T12:31:45;18.10;99.90
9975;DHT22;5028;50.974;4.968;2023-05-07T12:34:15;18.10;99.90
9975;DHT22;5028;50.974;4.968;2023-05-07T12:36:44;18.10;99.90
9975;DHT22;5028;50.974;4.968;2023-05-07T12:39:12;18.20;99.90
9975;DHT22;5028;50.974;4.968;2023-05-07T12:41:54;18.20;99.90
9975;DHT22;5028;50.974;4.968;2023-05-07T12:44:23;18.20;99.90
9975;DHT22;5028;50.974;4.968;2023-05-07T12:46:52;18.20;99.90
9975;DHT22;5028;50.974;4.968;2023-05-07T12:49:23;18.10;99.90
9975;DHT22;5028;50.974;4.968;2023-05-07T12:51:52;18.10;99.90
9975;DHT22;5028;50.974;4.968;2023-05-07T12:54:30;18.20;99.90
9975;DHT22;5028;50.974;4.968;2023-05-07T12:57:01;18.10;99.90
9975;DHT22;5028;50.974;4.968;2023-05-07T12:59:34;17.90;99.90
9975;DHT22;5028;50.974;4.968;2023-05-07T13:02:04;18.00;99.90
9975;DHT22;5028;50.974;4.968;2023-05-07T13:04:34;18.10;99.90
9975;DHT22;5028;50.974;4.968;2023-05-07T13:07:03;18.20;99.90
9975;DHT22;5028;50.974;4.968;2023-05-07T13:09:31;18.10;99.90
9975;DHT22;5028;50.974;4.968;2023-05-07T13:12:00;18.20;99.90
9975;DHT22;5028;50.974;4.968;2023-05-07T13:14:29;18.20;99.90
9975;DHT22;5028;50.974;4.968;2023-05-07T13:16:57;18.20;99.90
9975;DHT22;5028;50.974;4.968;2023-05-07T13:19:25;18.20;99.90
9975;DHT22;5028;50.974;4.968;2023-05-07T13:21:58;18.00;99.90
9975;DHT22;5028;50.974;4.968;2023-05-07T13:24:27;17.80;99.90
9975;DHT22;5028;50.974;4.968;2023-05-07T13:26:55;17.90;99.90
9975;DHT22;5028;50.974;4.968;2023-05-07T13:29:24;17.80;99.90
9975;DHT22;5028;50.974;4.968;2023-05-07T13:31:57;17.70;99.90
9975;DHT22;5028;50.974;4.968;2023-05-07T13:34:25;17.60;99.90
9975;DHT22;5028;50.974;4.968;2023-05-07T13:36:53;17.60;99.90
9975;DHT22;5028;50.974;4.968;2023-05-07T13:39:23;17.70;99.90
9975;DHT22;5028;50.974;4.968;2023-05-07T13:41:51;17.60;99.90
9975;DHT22;5028;50.974;4.968;2023-05-07T13:44:20;17.60;99.90
9975;DHT22;5028;50.974;4.968;2023-05-07T13:46:49;17.60;99.90
9975;DHT22;5028;50.974;4.968;2023-05-07T13:49:18;17.70;99.90
9975;DHT22;5028;50.974;4.968;2023-05-07T13:51:46;17.80;99.90
9975;DHT22;5028;50.974;4.968;2023-05-07T13:54:14;17.70;99.90
9975;DHT22;5028;50.974;4.968;2023-05-07T13:56:44;17.80;99.90
9975;DHT22;5028;50.974;4.968;2023-05-07T13:59:13;17.80;99.90
9975;DHT22;5028;50.974;4.968;2023-05-07T14:01:43;17.80;99.90
9975;DHT22;5028;50.974;4.968;2023-05-07T14:04:13;17.80;99.90
9975;DHT22;5028;50.974;4.968;2023-05-07T14:06:44;17.70;99.90
9975;DHT22;5028;50.974;4.968;2023-05-07T14:09:13;17.70;99.90
9975;DHT22;5028;50.974;4.968;2023-05-07T14:11:43;17.70;99.90
9975;DHT22;5028;50.974;4.968;2023-05-07T14:14:14;17.60;99.90
9975;DHT22;5028;50.974;4.968;2023-05-07T14:16:42;17.70;99.90
9975;DHT22;5028;50.974;4.968;2023-05-07T14:19:16;17.70;99.90
9975;DHT22;5028;50.974;4.968;2023-05-07T14:21:45;17.70;99.90
9975;DHT22;5028;50.974;4.968;2023-05-07T14:24:13;17.70;99.90
9975;DHT22;5028;50.974;4.968;2023-05-07T14:27:02;17.60;99.90
9975;DHT22;5028;50.974;4.968;2023-05-07T14:29:30;17.70;99.90
9975;DHT22;5028;50.974;4.968;2023-05-07T14:31:58;17.90;99.90
9975;DHT22;5028;50.974;4.968;2023-05-07T14:34:27;17.80;99.90
9975;DHT22;5028;50.974;4.968;2023-05-07T14:36:55;17.80;99.90
9975;DHT22;5028;50.974;4.968;2023-05-07T14:39:24;18.00;99.90
9975;DHT22;5028;50.974;4.968;2023-05-07T14:41:52;18.10;99.90
9975;DHT22;5028;50.974;4.968;2023-05-07T14:44:24;18.20;99.90
9975;DHT22;5028;50.974;4.968;2023-05-07T14:46:52;18.20;99.90
9975;DHT22;5028;50.974;4.968;2023-05-07T14:49:21;18.20;99.90
9975;DHT22;5028;50.974;4.968;2023-05-07T14:51:49;18.20;99.90
9975;DHT22;5028;50.974;4.968;2023-05-07T14:54:18;18.00;99.90
9975;DHT22;5028;50.974;4.968;2023-05-07T14:56:48;18.00;99.90
9975;DHT22;5028;50.974;4.968;2023-05-07T14:59:17;18.00;99.90
9975;DHT22;5028;50.974;4.968;2023-05-07T15:01:49;18.00;99.90
9975;DHT22;5028;50.974;4.968;2023-05-07T15:04:18;17.90;99.90
9975;DHT22;5028;50.974;4.968;2023-05-07T15:06:46;18.00;99.90
9975;DHT22;5028;50.974;4.968;2023-05-07T15:09:15;18.10;99.90
9975;DHT22;5028;50.974;4.968;2023-05-07T15:11:43;18.10;99.90
9975;DHT22;5028;50.974;4.968;2023-05-07T15:14:11;18.10;99.90
9975;DHT22;5028;50.974;4.968;2023-05-07T15:16:40;18.20;99.90
9975;DHT22;5028;50.974;4.968;2023-05-07T15:19:10;18.10;99.90
9975;DHT22;5028;50.974;4.968;2023-05-07T15:21:43;18.20;99.90
9975;DHT22;5028;50.974;4.968;2023-05-07T15:24:12;18.20;99.90
9975;DHT22;5028;50.974;4.968;2023-05-07T15:26:40;18.30;99.90
9975;DHT22;5028;50.974;4.968;2023-05-07T15:29:09;18.20;99.90
9975;DHT22;5028;50.974;4.968;2023-05-07T15:31:38;18.10;99.90
9975;DHT22;5028;50.974;4.968;2023-05-07T15:34:07;18.10;99.90
9975;DHT22;5028;50.974;4.968;2023-05-07T15:36:36;18.10;99.90
9975;DHT22;5028;50.974;4.968;2023-05-07T15:39:05;18.20;99.90
9975;DHT22;5028;50.974;4.968;2023-05-07T15:41:33;18.20;99.90
9975;DHT22;5028;50.974;4.968;2023-05-07T15:44:04;18.30;99.90
9975;DHT22;5028;50.974;4.968;2023-05-07T15:46:32;18.30;99.90
9975;DHT22;5028;50.974;4.968;2023-05-07T15:49:01;18.50;99.90
9975;DHT22;5028;50.974;4.968;2023-05-07T15:51:33;18.60;99.90
9975;DHT22;5028;50.974;4.968;2023-05-07T15:54:03;18.70;99.90
9975;DHT22;5028;50.974;4.968;2023-05-07T15:56:32;18.70;99.90
9975;DHT22;5028;50.974;4.968;2023-05-07T15:59:01;18.70;99.90
9975;DHT22;5028;50.974;4.968;2023-05-07T16:01:30;18.70;99.90
9975;DHT22;5028;50.974;4.968;2023-05-07T16:03:58;18.70;99.90
9975;DHT22;5028;50.974;4.968;2023-05-07T16:06:27;18.80;99.90
9975;DHT22;5028;50.974;4.968;2023-05-07T16:08:57;18.70;99.90
9975;DHT22;5028;50.974;4.968;2023-05-07T16:11:27;18.70;99.90
9975;DHT22;5028;50.974;4.968;2023-05-07T16:13:56;18.50;99.90
9975;DHT22;5028;50.974;4.968;2023-05-07T16:16:27;18.50;99.90
9975;DHT22;5028;50.974;4.968;2023-05-07T16:18:56;18.60;99.90
9975;DHT22;5028;50.974;4.968;2023-05-07T16:21:25;18.60;99.90
9975;DHT22;5028;50.974;4.968;2023-05-07T16:23:54;18.70;99.90
9975;DHT22;5028;50.974;4.968;2023-05-07T16:26:23;18.80;99.90
9975;DHT22;5028;50.974;4.968;2023-05-07T16:28:54;18.90;99.90
9975;DHT22;5028;50.974;4.968;2023-05-07T16:31:23;19.00;99.90